sensor_id;sensor_type;location;lat;lon;timestamp;pressure;altitude;pressure_sealevel;temperature;humidity
54465;BME280;40374;49.480;20.016;2023-03-16T00:00:19;62409.59;;;-145.97;100.00
54465;BME280;40374;49.480;20.016;2023-03-16T00:03:09;62409.59;;;-145.97;100.00
54465;BME280;40374;49.480;20.016;2023-03-16T00:05:37;62409.59;;;-145.97;100.00
54465;BME280;40374;49.480;20.016;2023-03-16T00:08:04;62409.59;;;-145.97;100.00
54465;BME280;40374;49.480;20.016;2023-03-16T00:10:32;62409.59;;;-145.97;100.00
54465;BME280;40374;49.480;20.016;2023-03-16T00:12:59;62409.59;;;-145.97;100.00
54465;BME280;40374;49.480;20.016;2023-03-16T00:15:28;62409.59;;;-145.97;100.00
54465;BME280;40374;49.480;20.016;2023-03-16T00:17:56;62409.59;;;-145.97;100.00
54465;BME280;40374;49.480;20.016;2023-03-16T00:20:23;62409.59;;;-145.97;100.00
54465;BME280;40374;49.480;20.016;2023-03-16T00:22:52;62409.59;;;-145.97;100.00
54465;BME280;40374;49.480;20.016;2023-03-16T00:25:20;62409.59;;;-145.97;100.00
54465;BME280;40374;49.480;20.016;2023-03-16T00:27:47;62409.59;;;-145.97;100.00
54465;BME280;40374;49.480;20.016;2023-03-16T00:30:15;62409.59;;;-145.97;100.00
54465;BME280;40374;49.480;20.016;2023-03-16T00:32:46;62409.59;;;-145.97;100.00
54465;BME280;40374;49.480;20.016;2023-03-16T00:35:16;62409.59;;;-145.97;100.00
54465;BME280;40374;49.480;20.016;2023-03-16T00:37:45;62409.59;;;-145.97;100.00
54465;BME280;40374;49.480;20.016;2023-03-16T00:40:13;62409.59;;;-145.97;100.00
54465;BME280;40374;49.480;20.016;2023-03-16T00:42:42;62409.59;;;-145.97;100.00
54465;BME280;40374;49.480;20.016;2023-03-16T00:45:09;62409.59;;;-145.97;100.00
54465;BME280;40374;49.480;20.016;2023-03-16T00:47:37;62409.59;;;-145.97;100.00
54465;BME280;40374;49.480;20.016;2023-03-16T00:50:04;62409.59;;;-145.97;100.00
54465;BME280;40374;49.480;20.016;2023-03-16T00:52:32;62409.59;;;-145.97;100.00
54465;BME280;40374;49.480;20.016;2023-03-16T00:55:01;62409.59;;;-145.97;100.00
54465;BME280;40374;49.480;20.016;2023-03-16T00:57:31;62409.59;;;-145.97;100.00
54465;BME280;40374;49.480;20.016;2023-03-16T00:59:58;62409.59;;;-145.97;100.00
54465;BME280;40374;49.480;20.016;2023-03-16T01:02:26;62409.59;;;-145.97;100.00
54465;BME280;40374;49.480;20.016;2023-03-16T01:04:53;62409.59;;;-145.97;100.00
54465;BME280;40374;49.480;20.016;2023-03-16T01:07:21;62409.59;;;-145.97;100.00
54465;BME280;40374;49.480;20.016;2023-03-16T01:09:49;62409.59;;;-145.97;100.00
54465;BME280;40374;49.480;20.016;2023-03-16T01:12:18;62409.59;;;-145.97;100.00
54465;BME280;40374;49.480;20.016;2023-03-16T01:14:46;62409.59;;;-145.97;100.00
54465;BME280;40374;49.480;20.016;2023-03-16T01:17:16;62409.59;;;-145.97;100.00
54465;BME280;40374;49.480;20.016;2023-03-16T01:19:44;62409.59;;;-145.97;100.00
54465;BME280;40374;49.480;20.016;2023-03-16T01:22:12;62409.59;;;-145.97;100.00
54465;BME280;40374;49.480;20.016;2023-03-16T01:24:41;62409.59;;;-145.97;100.00
54465;BME280;40374;49.480;20.016;2023-03-16T01:27:12;62409.59;;;-145.97;100.00
54465;BME280;40374;49.480;20.016;2023-03-16T01:29:41;62409.59;;;-145.97;100.00
54465;BME280;40374;49.480;20.016;2023-03-16T01:32:11;62409.59;;;-145.97;100.00
54465;BME280;40374;49.480;20.016;2023-03-16T01:34:39;62409.59;;;-145.97;100.00
54465;BME280;40374;49.480;20.016;2023-03-16T01:37:06;62409.59;;;-145.97;100.00
54465;BME280;40374;49.480;20.016;2023-03-16T01:39:54;62409.59;;;-145.97;100.00
54465;BME280;40374;49.480;20.016;2023-03-16T01:42:22;62409.59;;;-145.97;100.00
54465;BME280;40374;49.480;20.016;2023-03-16T01:44:58;62409.59;;;-145.97;100.00
54465;BME280;40374;49.480;20.016;2023-03-16T01:47:37;62409.59;;;-145.97;100.00
54465;BME280;40374;49.480;20.016;2023-03-16T01:50:11;62409.59;;;-145.97;100.00
54465;BME280;40374;49.480;20.016;2023-03-16T01:52:40;62409.59;;;-145.97;100.00
54465;BME280;40374;49.480;20.016;2023-03-16T01:55:10;62409.59;;;-145.97;100.00
54465;BME280;40374;49.480;20.016;2023-03-16T01:57:42;62409.59;;;-145.97;100.00
54465;BME280;40374;49.480;20.016;2023-03-16T02:00:18;62409.59;;;-145.97;100.00
54465;BME280;40374;49.480;20.016;2023-03-16T02:03:12;62409.59;;;-145.97;100.00
54465;BME280;40374;49.480;20.016;2023-03-16T02:06:05;62409.59;;;-145.97;100.00
54465;BME280;40374;49.480;20.016;2023-03-16T02:08:37;62409.59;;;-145.97;100.00
54465;BME280;40374;49.480;20.016;2023-03-16T02:11:07;62409.59;;;-145.97;100.00
54465;BME280;40374;49.480;20.016;2023-03-16T02:13:46;62409.59;;;-145.97;100.00
54465;BME280;40374;49.480;20.016;2023-03-16T02:16:18;62409.59;;;-145.97;100.00
54465;BME280;40374;49.480;20.016;2023-03-16T02:18:51;62409.59;;;-145.97;100.00
54465;BME280;40374;49.480;20.016;2023-03-16T02:23:52;62409.59;;;-145.97;100.00
54465;BME280;40374;49.480;20.016;2023-03-16T02:26:34;62409.59;;;-145.97;100.00
54465;BME280;40374;49.480;20.016;2023-03-16T02:31:37;62409.59;;;-145.97;100.00
54465;BME280;40374;49.480;20.016;2023-03-16T02:34:06;62409.59;;;-145.97;100.00
54465;BME280;40374;49.480;20.016;2023-03-16T02:36:35;62409.59;;;-145.97;100.00
54465;BME280;40374;49.480;20.016;2023-03-16T02:39:04;62409.59;;;-145.97;100.00
54465;BME280;40374;49.480;20.016;2023-03-16T02:41:40;62409.59;;;-145.97;100.00
54465;BME280;40374;49.480;20.016;2023-03-16T02:46:42;62409.59;;;-145.97;100.00
54465;BME280;40374;49.480;20.016;2023-03-16T02:51:51;62409.59;;;-145.97;100.00
54465;BME280;40374;49.480;20.016;2023-03-16T02:54:19;62409.59;;;-145.97;100.00
54465;BME280;40374;49.480;20.016;2023-03-16T02:56:46;62409.59;;;-145.97;100.00
54465;BME280;40374;49.480;20.016;2023-03-16T02:59:14;62409.59;;;-145.97;100.00
54465;BME280;40374;49.480;20.016;2023-03-16T03:01:41;62409.59;;;-145.97;100.00
54465;BME280;40374;49.480;20.016;2023-03-16T03:04:09;62409.59;;;-145.97;100.00
54465;BME280;40374;49.480;20.016;2023-03-16T03:06:36;62409.59;;;-145.97;100.00
54465;BME280;40374;49.480;20.016;2023-03-16T03:09:04;62409.59;;;-145.97;100.00
54465;BME280;40374;49.480;20.016;2023-03-16T03:11:32;62409.59;;;-145.97;100.00
54465;BME280;40374;49.480;20.016;2023-03-16T03:14:00;62409.59;;;-145.97;100.00
54465;BME280;40374;49.480;20.016;2023-03-16T03:16:28;62409.59;;;-145.97;100.00
54465;BME280;40374;49.480;20.016;2023-03-16T03:18:57;62409.59;;;-145.97;100.00
54465;BME280;40374;49.480;20.016;2023-03-16T03:21:27;62409.59;;;-145.97;100.00
54465;BME280;40374;49.480;20.016;2023-03-16T03:23:55;62409.59;;;-145.97;100.00
54465;BME280;40374;49.480;20.016;2023-03-16T03:26:22;62409.59;;;-145.97;100.00
54465;BME280;40374;49.480;20.016;2023-03-16T03:28:51;62409.59;;;-145.97;100.00
54465;BME280;40374;49.480;20.016;2023-03-16T03:31:20;62409.59;;;-145.97;100.00
54465;BME280;40374;49.480;20.016;2023-03-16T03:33:50;62409.59;;;-145.97;100.00
54465;BME280;40374;49.480;20.016;2023-03-16T03:36:20;62409.59;;;-145.97;100.00
54465;BME280;40374;49.480;20.016;2023-03-16T03:38:48;62409.59;;;-145.97;100.00
54465;BME280;40374;49.480;20.016;2023-03-16T03:41:18;62409.59;;;-145.97;100.00
54465;BME280;40374;49.480;20.016;2023-03-16T03:43:46;62409.59;;;-145.97;100.00
54465;BME280;40374;49.480;20.016;2023-03-16T03:46:16;62409.59;;;-145.97;100.00
54465;BME280;40374;49.480;20.016;2023-03-16T03:48:44;62409.59;;;-145.97;100.00
54465;BME280;40374;49.480;20.016;2023-03-16T03:51:11;62409.59;;;-145.97;100.00
54465;BME280;40374;49.480;20.016;2023-03-16T03:54:08;62409.59;;;-145.97;100.00
54465;BME280;40374;49.480;20.016;2023-03-16T03:57:07;62409.59;;;-145.97;100.00
54465;BME280;40374;49.480;20.016;2023-03-16T03:59:35;62409.59;;;-145.97;100.00
54465;BME280;40374;49.480;20.016;2023-03-16T04:02:38;62409.59;;;-145.97;100.00
54465;BME280;40374;49.480;20.016;2023-03-16T04:05:13;62409.59;;;-145.97;100.00
54465;BME280;40374;49.480;20.016;2023-03-16T04:07:40;62409.59;;;-145.97;100.00
54465;BME280;40374;49.480;20.016;2023-03-16T04:10:11;62409.59;;;-145.97;100.00
54465;BME280;40374;49.480;20.016;2023-03-16T04:12:41;62409.59;;;-145.97;100.00
54465;BME280;40374;49.480;20.016;2023-03-16T04:15:10;62409.59;;;-145.97;100.00
54465;BME280;40374;49.480;20.016;2023-03-16T04:17:49;62409.59;;;-145.97;100.00
54465;BME280;40374;49.480;20.016;2023-03-16T04:20:17;62409.59;;;-145.97;100.00
54465;BME280;40374;49.480;20.016;2023-03-16T04:22:46;62409.59;;;-145.97;100.00
54465;BME280;40374;49.480;20.016;2023-03-16T04:25:16;62409.59;;;-145.97;100.00
54465;BME280;40374;49.480;20.016;2023-03-16T04:27:44;62409.59;;;-145.97;100.00
54465;BME280;40374;49.480;20.016;2023-03-16T04:30:15;62409.59;;;-145.97;100.00
54465;BME280;40374;49.480;20.016;2023-03-16T04:32:47;62409.59;;;-145.97;100.00
54465;BME280;40374;49.480;20.016;2023-03-16T04:35:18;62409.59;;;-145.97;100.00
54465;BME280;40374;49.480;20.016;2023-03-16T04:37:49;62409.59;;;-145.97;100.00
54465;BME280;40374;49.480;20.016;2023-03-16T04:40:20;62409.59;;;-145.97;100.00
54465;BME280;40374;49.480;20.016;2023-03-16T04:42:54;62409.59;;;-145.97;100.00
54465;BME280;40374;49.480;20.016;2023-03-16T04:45:22;62409.59;;;-145.97;100.00
54465;BME280;40374;49.480;20.016;2023-03-16T04:47:52;62409.59;;;-145.97;100.00
54465;BME280;40374;49.480;20.016;2023-03-16T04:50:20;62409.59;;;-145.97;100.00
54465;BME280;40374;49.480;20.016;2023-03-16T04:52:52;62409.59;;;-145.97;100.00
54465;BME280;40374;49.480;20.016;2023-03-16T04:55:20;62409.59;;;-145.97;100.00
54465;BME280;40374;49.480;20.016;2023-03-16T04:57:49;62409.59;;;-145.97;100.00
54465;BME280;40374;49.480;20.016;2023-03-16T05:00:20;62409.59;;;-145.97;100.00
54465;BME280;40374;49.480;20.016;2023-03-16T05:02:59;62409.59;;;-145.97;100.00
54465;BME280;40374;49.480;20.016;2023-03-16T05:05:27;62409.59;;;-145.97;100.00
54465;BME280;40374;49.480;20.016;2023-03-16T05:07:54;62409.59;;;-145.97;100.00
54465;BME280;40374;49.480;20.016;2023-03-16T05:10:22;62409.59;;;-145.97;100.00
54465;BME280;40374;49.480;20.016;2023-03-16T05:12:50;62409.59;;;-145.97;100.00
54465;BME280;40374;49.480;20.016;2023-03-16T05:15:18;62409.59;;;-145.97;100.00
54465;BME280;40374;49.480;20.016;2023-03-16T05:17:56;62409.59;;;-145.97;100.00
54465;BME280;40374;49.480;20.016;2023-03-16T05:20:24;62409.59;;;-145.97;100.00
54465;BME280;40374;49.480;20.016;2023-03-16T05:22:56;62409.59;;;-145.97;100.00
54465;BME280;40374;49.480;20.016;2023-03-16T05:25:27;62409.59;;;-145.97;100.00
54465;BME280;40374;49.480;20.016;2023-03-16T05:27:56;62409.59;;;-145.97;100.00
54465;BME280;40374;49.480;20.016;2023-03-16T05:30:31;62409.59;;;-145.97;100.00
54465;BME280;40374;49.480;20.016;2023-03-16T05:33:02;62409.59;;;-145.97;100.00
54465;BME280;40374;49.480;20.016;2023-03-16T05:35:30;62409.59;;;-145.97;100.00
54465;BME280;40374;49.480;20.016;2023-03-16T05:38:03;62409.59;;;-145.97;100.00
54465;BME280;40374;49.480;20.016;2023-03-16T05:40:33;62409.59;;;-145.97;100.00
54465;BME280;40374;49.480;20.016;2023-03-16T05:43:10;62409.59;;;-145.97;100.00
54465;BME280;40374;49.480;20.016;2023-03-16T05:45:43;62409.59;;;-145.97;100.00
54465;BME280;40374;49.480;20.016;2023-03-16T05:48:14;62409.59;;;-145.97;100.00
54465;BME280;40374;49.480;20.016;2023-03-16T05:50:46;62409.59;;;-145.97;100.00
54465;BME280;40374;49.480;20.016;2023-03-16T05:53:16;62409.59;;;-145.97;100.00
54465;BME280;40374;49.480;20.016;2023-03-16T05:55:44;62409.59;;;-145.97;100.00
54465;BME280;40374;49.480;20.016;2023-03-16T05:58:18;62409.59;;;-145.97;100.00
54465;BME280;40374;49.480;20.016;2023-03-16T06:00:46;62409.59;;;-145.97;100.00
54465;BME280;40374;49.480;20.016;2023-03-16T06:03:27;62409.59;;;-145.97;100.00
54465;BME280;40374;49.480;20.016;2023-03-16T06:05:57;62409.59;;;-145.97;100.00
54465;BME280;40374;49.480;20.016;2023-03-16T06:08:29;62409.59;;;-145.97;100.00
54465;BME280;40374;49.480;20.016;2023-03-16T06:11:06;62409.59;;;-145.97;100.00
54465;BME280;40374;49.480;20.016;2023-03-16T06:13:33;62409.59;;;-145.97;100.00
54465;BME280;40374;49.480;20.016;2023-03-16T06:16:01;62409.59;;;-145.97;100.00
54465;BME280;40374;49.480;20.016;2023-03-16T06:18:28;62409.59;;;-145.97;100.00
54465;BME280;40374;49.480;20.016;2023-03-16T06:20:56;62409.59;;;-145.97;100.00
54465;BME280;40374;49.480;20.016;2023-03-16T06:23:23;62409.59;;;-145.97;100.00
54465;BME280;40374;49.480;20.016;2023-03-16T06:25:51;62409.59;;;-145.97;100.00
54465;BME280;40374;49.480;20.016;2023-03-16T06:28:24;62409.59;;;-145.97;100.00
54465;BME280;40374;49.480;20.016;2023-03-16T06:30:52;62409.59;;;-145.97;100.00
54465;BME280;40374;49.480;20.016;2023-03-16T06:33:22;62409.59;;;-145.97;100.00
54465;BME280;40374;49.480;20.016;2023-03-16T06:35:50;62409.59;;;-145.97;100.00
54465;BME280;40374;49.480;20.016;2023-03-16T06:38:27;62409.59;;;-145.97;100.00
54465;BME280;40374;49.480;20.016;2023-03-16T06:40:59;62409.59;;;-145.97;100.00
54465;BME280;40374;49.480;20.016;2023-03-16T06:43:28;62409.59;;;-145.97;100.00
54465;BME280;40374;49.480;20.016;2023-03-16T06:54:42;95246.16;;;1.38;100.00
54465;BME280;40374;49.480;20.016;2023-03-16T06:57:11;95245.03;;;2.21;100.00
54465;BME280;40374;49.480;20.016;2023-03-16T06:59:38;95239.94;;;2.75;100.00
54465;BME280;40374;49.480;20.016;2023-03-16T07:02:12;95238.25;;;3.23;100.00
54465;BME280;40374;49.480;20.016;2023-03-16T07:04:58;95254.25;;;3.35;100.00
54465;BME280;40374;49.480;20.016;2023-03-16T07:07:27;95253.88;;;3.61;100.00
54465;BME280;40374;49.480;20.016;2023-03-16T07:09:55;95248.69;;;3.78;100.00
54465;BME280;40374;49.480;20.016;2023-03-16T07:12:24;95263.59;;;3.68;100.00
54465;BME280;40374;49.480;20.016;2023-03-16T07:14:52;95264.00;;;3.41;100.00
54465;BME280;40374;49.480;20.016;2023-03-16T07:17:24;95260.44;;;3.47;100.00
54465;BME280;40374;49.480;20.016;2023-03-16T07:19:51;95268.56;;;3.22;100.00
54465;BME280;40374;49.480;20.016;2023-03-16T07:22:19;95262.16;;;3.11;100.00
54465;BME280;40374;49.480;20.016;2023-03-16T07:24:48;95270.75;;;3.25;100.00
54465;BME280;40374;49.480;20.016;2023-03-16T07:27:26;95277.06;;;3.42;100.00
54465;BME280;40374;49.480;20.016;2023-03-16T07:29:56;95281.03;;;3.63;100.00
54465;BME280;40374;49.480;20.016;2023-03-16T07:32:25;95277.66;;;3.56;100.00
54465;BME280;40374;49.480;20.016;2023-03-16T07:34:53;95277.34;;;3.64;100.00
54465;BME280;40374;49.480;20.016;2023-03-16T07:37:21;95289.78;;;3.52;100.00
54465;BME280;40374;49.480;20.016;2023-03-16T07:39:55;95274.25;;;3.37;100.00
54465;BME280;40374;49.480;20.016;2023-03-16T07:42:23;95294.72;;;3.37;100.00
54465;BME280;40374;49.480;20.016;2023-03-16T07:45:03;95283.13;;;3.31;100.00
54465;BME280;40374;49.480;20.016;2023-03-16T07:47:32;95278.03;;;3.60;100.00
54465;BME280;40374;49.480;20.016;2023-03-16T07:50:08;95282.88;;;3.63;100.00
54465;BME280;40374;49.480;20.016;2023-03-16T07:52:44;95290.88;;;3.75;100.00
54465;BME280;40374;49.480;20.016;2023-03-16T07:55:14;95283.50;;;4.00;100.00
54465;BME280;40374;49.480;20.016;2023-03-16T07:57:47;95289.44;;;4.14;100.00
54465;BME280;40374;49.480;20.016;2023-03-16T08:00:19;95286.09;;;4.31;100.00
54465;BME280;40374;49.480;20.016;2023-03-16T08:02:51;95283.47;;;4.71;100.00
54465;BME280;40374;49.480;20.016;2023-03-16T08:05:20;95277.97;;;5.30;97.39
54465;BME280;40374;49.480;20.016;2023-03-16T08:07:53;95283.75;;;5.27;83.05
54465;BME280;40374;49.480;20.016;2023-03-16T08:10:24;95288.00;;;5.11;86.96
54465;BME280;40374;49.480;20.016;2023-03-16T08:13:01;95295.31;;;4.63;88.24
54465;BME280;40374;49.480;20.016;2023-03-16T08:15:32;95293.13;;;4.60;95.70
54465;BME280;40374;49.480;20.016;2023-03-16T08:18:08;95296.22;;;4.81;91.66
54465;BME280;40374;49.480;20.016;2023-03-16T08:20:36;95304.53;;;4.84;81.56
54465;BME280;40374;49.480;20.016;2023-03-16T08:23:04;95300.78;;;4.21;83.72
54465;BME280;40374;49.480;20.016;2023-03-16T08:25:42;95297.06;;;4.34;93.57
54465;BME280;40374;49.480;20.016;2023-03-16T08:28:14;95303.91;;;4.54;85.08
54465;BME280;40374;49.480;20.016;2023-03-16T08:30:45;95297.56;;;4.95;85.52
54465;BME280;40374;49.480;20.016;2023-03-16T08:33:24;95296.69;;;5.47;79.42
54465;BME280;40374;49.480;20.016;2023-03-16T08:35:52;95290.63;;;6.14;71.80
54465;BME280;40374;49.480;20.016;2023-03-16T08:38:20;95289.38;;;6.56;64.76
54465;BME280;40374;49.480;20.016;2023-03-16T08:40:51;95289.38;;;6.78;58.89
54465;BME280;40374;49.480;20.016;2023-03-16T08:43:21;95285.91;;;7.21;58.29
54465;BME280;40374;49.480;20.016;2023-03-16T08:45:51;95281.06;;;7.72;58.53
54465;BME280;40374;49.480;20.016;2023-03-16T08:48:24;95292.78;;;8.26;56.34
54465;BME280;40374;49.480;20.016;2023-03-16T08:50:53;95287.34;;;8.96;56.73
54465;BME280;40374;49.480;20.016;2023-03-16T08:53:24;95283.31;;;9.97;52.35
54465;BME280;40374;49.480;20.016;2023-03-16T08:55:51;95273.47;;;11.14;52.23
54465;BME280;40374;49.480;20.016;2023-03-16T08:58:22;95265.97;;;12.39;49.36
54465;BME280;40374;49.480;20.016;2023-03-16T09:00:50;95273.88;;;12.89;46.37
54465;BME280;40374;49.480;20.016;2023-03-16T09:03:19;95274.63;;;12.66;44.21
54465;BME280;40374;49.480;20.016;2023-03-16T09:05:47;95271.25;;;11.81;43.94
54465;BME280;40374;49.480;20.016;2023-03-16T09:08:16;95284.88;;;10.90;45.60
54465;BME280;40374;49.480;20.016;2023-03-16T09:10:44;95290.31;;;10.19;46.95
54465;BME280;40374;49.480;20.016;2023-03-16T09:13:18;95294.31;;;9.80;47.94
54465;BME280;40374;49.480;20.016;2023-03-16T09:15:45;95299.09;;;9.63;47.99
54465;BME280;40374;49.480;20.016;2023-03-16T09:18:16;95298.56;;;9.66;47.75
54465;BME280;40374;49.480;20.016;2023-03-16T09:20:46;95304.78;;;9.87;47.75
54465;BME280;40374;49.480;20.016;2023-03-16T09:23:15;95304.81;;;9.92;47.82
54465;BME280;40374;49.480;20.016;2023-03-16T09:25:44;95310.69;;;9.84;47.85
54465;BME280;40374;49.480;20.016;2023-03-16T09:28:13;95313.28;;;9.38;47.05
54465;BME280;40374;49.480;20.016;2023-03-16T09:36:54;95307.41;;;8.88;52.14
54465;BME280;40374;49.480;20.016;2023-03-16T09:39:23;95307.09;;;9.42;50.38
54465;BME280;40374;49.480;20.016;2023-03-16T09:47:33;95294.59;;;9.84;48.11
54465;BME280;40374;49.480;20.016;2023-03-16T09:50:12;95291.94;;;10.30;47.83
54465;BME280;40374;49.480;20.016;2023-03-16T09:55:31;95289.28;;;12.25;45.60
54465;BME280;40374;49.480;20.016;2023-03-16T09:58:00;95294.25;;;13.25;44.14
54465;BME280;40374;49.480;20.016;2023-03-16T10:00:37;95291.56;;;13.00;39.19
54465;BME280;40374;49.480;20.016;2023-03-16T10:05:43;95280.13;;;14.28;40.49
54465;BME280;40374;49.480;20.016;2023-03-16T10:08:36;95284.41;;;14.67;41.06
54465;BME280;40374;49.480;20.016;2023-03-16T10:11:27;95288.94;;;14.19;38.25
54465;BME280;40374;49.480;20.016;2023-03-16T10:14:08;95294.56;;;12.70;37.87
54465;BME280;40374;49.480;20.016;2023-03-16T10:16:46;95302.72;;;11.96;38.63
54465;BME280;40374;49.480;20.016;2023-03-16T10:22:38;95301.50;;;11.08;39.28
54465;BME280;40374;49.480;20.016;2023-03-16T10:27:38;95291.31;;;11.60;42.06
54465;BME280;40374;49.480;20.016;2023-03-16T10:33:16;95307.22;;;10.86;42.20
54465;BME280;40374;49.480;20.016;2023-03-16T10:38:52;95312.31;;;10.87;43.69
54465;BME280;40374;49.480;20.016;2023-03-16T10:41:26;95301.28;;;10.79;39.19
54465;BME280;40374;49.480;20.016;2023-03-16T10:44:16;95292.91;;;11.61;40.71
54465;BME280;40374;49.480;20.016;2023-03-16T10:46:50;95302.53;;;12.22;38.29
54465;BME280;40374;49.480;20.016;2023-03-16T10:49:27;95305.06;;;12.71;38.59
54465;BME280;40374;49.480;20.016;2023-03-16T10:51:58;95284.88;;;13.41;38.39
54465;BME280;40374;49.480;20.016;2023-03-16T10:54:33;95289.09;;;14.42;38.02
54465;BME280;40374;49.480;20.016;2023-03-16T10:57:19;95278.53;;;15.48;36.42
54465;BME280;40374;49.480;20.016;2023-03-16T11:00:12;95284.97;;;15.52;33.53
54465;BME280;40374;49.480;20.016;2023-03-16T11:02:49;95276.31;;;14.94;32.93
54465;BME280;40374;49.480;20.016;2023-03-16T11:07:48;95277.63;;;13.98;36.70
54465;BME280;40374;49.480;20.016;2023-03-16T11:10:27;95287.44;;;13.75;36.36
54465;BME280;40374;49.480;20.016;2023-03-16T11:13:18;95288.69;;;12.92;36.67
54465;BME280;40374;49.480;20.016;2023-03-16T11:15:51;95294.06;;;12.92;37.77
54465;BME280;40374;49.480;20.016;2023-03-16T11:18:27;95275.44;;;14.19;38.49
54465;BME280;40374;49.480;20.016;2023-03-16T11:21:49;95276.28;;;15.63;36.63
54465;BME280;40374;49.480;20.016;2023-03-16T11:23:55;95282.59;;;15.87;34.50
54465;BME280;40374;49.480;20.016;2023-03-16T11:26:30;95266.25;;;15.64;34.72
54465;BME280;40374;49.480;20.016;2023-03-16T11:29:15;95279.84;;;15.50;33.60
54465;BME280;40374;49.480;20.016;2023-03-16T11:31:53;95278.59;;;14.59;35.23
54465;BME280;40374;49.480;20.016;2023-03-16T11:34:28;95271.41;;;13.98;35.15
54465;BME280;40374;49.480;20.016;2023-03-16T11:37:16;95279.75;;;13.83;36.02
54465;BME280;40374;49.480;20.016;2023-03-16T11:39:57;95283.75;;;13.85;36.73
54465;BME280;40374;49.480;20.016;2023-03-16T11:42:32;95287.47;;;13.27;35.72
54465;BME280;40374;49.480;20.016;2023-03-16T11:50:56;95285.88;;;13.02;37.60
54465;BME280;40374;49.480;20.016;2023-03-16T11:59:00;95286.28;;;16.05;35.17
54465;BME280;40374;49.480;20.016;2023-03-16T12:07:28;95268.78;;;16.11;32.85
54465;BME280;40374;49.480;20.016;2023-03-16T12:15:59;95265.69;;;17.02;34.16
54465;BME280;40374;49.480;20.016;2023-03-16T12:18:39;95271.53;;;18.45;32.48
54465;BME280;40374;49.480;20.016;2023-03-16T12:21:16;95267.47;;;19.72;31.91
54465;BME280;40374;49.480;20.016;2023-03-16T12:23:51;95263.78;;;19.98;29.50
54465;BME280;40374;49.480;20.016;2023-03-16T12:26:25;95284.88;;;18.30;30.14
54465;BME280;40374;49.480;20.016;2023-03-16T12:28:59;95276.97;;;16.87;31.67
54465;BME280;40374;49.480;20.016;2023-03-16T12:31:49;95291.09;;;16.75;32.53
54465;BME280;40374;49.480;20.016;2023-03-16T12:40:02;95273.72;;;17.08;31.50
54465;BME280;40374;49.480;20.016;2023-03-16T12:42:51;95290.16;;;15.76;32.44
54465;BME280;40374;49.480;20.016;2023-03-16T12:56:12;95295.91;;;14.58;34.35
54465;BME280;40374;49.480;20.016;2023-03-16T12:58:46;95283.97;;;15.34;33.71
54465;BME280;40374;49.480;20.016;2023-03-16T13:01:19;95277.34;;;15.26;31.67
54465;BME280;40374;49.480;20.016;2023-03-16T13:03:59;95278.41;;;15.67;32.27
54465;BME280;40374;49.480;20.016;2023-03-16T13:06:34;95273.78;;;16.17;32.22
54465;BME280;40374;49.480;20.016;2023-03-16T13:09:04;95280.13;;;15.76;32.20
54465;BME280;40374;49.480;20.016;2023-03-16T13:11:45;95277.31;;;14.98;33.02
54465;BME280;40374;49.480;20.016;2023-03-16T13:19:27;95284.81;;;12.10;36.08
54465;BME280;40374;49.480;20.016;2023-03-16T13:22:02;95290.06;;;11.91;36.46
54465;BME280;40374;49.480;20.016;2023-03-16T13:24:49;95285.53;;;12.21;37.69
54465;BME280;40374;49.480;20.016;2023-03-16T13:27:26;95262.19;;;12.06;36.52
54465;BME280;40374;49.480;20.016;2023-03-16T13:30:00;95294.72;;;12.20;36.78
54465;BME280;40374;49.480;20.016;2023-03-16T13:32:31;95292.38;;;12.08;36.61
54465;BME280;40374;49.480;20.016;2023-03-16T13:35:04;95307.25;;;12.01;37.01
54465;BME280;40374;49.480;20.016;2023-03-16T13:37:35;95306.41;;;12.05;37.27
54465;BME280;40374;49.480;20.016;2023-03-16T13:40:03;95294.66;;;11.91;37.78
54465;BME280;40374;49.480;20.016;2023-03-16T13:42:33;95296.50;;;11.46;37.80
54465;BME280;40374;49.480;20.016;2023-03-16T13:45:12;95308.22;;;11.00;38.20
54465;BME280;40374;49.480;20.016;2023-03-16T13:47:43;95299.19;;;10.45;39.24
54465;BME280;40374;49.480;20.016;2023-03-16T13:50:13;95305.41;;;10.30;39.46
54465;BME280;40374;49.480;20.016;2023-03-16T13:52:48;95303.78;;;10.44;41.74
54465;BME280;40374;49.480;20.016;2023-03-16T13:55:17;95297.31;;;10.55;38.46
54465;BME280;40374;49.480;20.016;2023-03-16T13:57:51;95306.91;;;10.97;39.79
54465;BME280;40374;49.480;20.016;2023-03-16T14:02:56;95316.03;;;11.02;38.90
54465;BME280;40374;49.480;20.016;2023-03-16T14:05:28;95316.94;;;10.61;39.98
54465;BME280;40374;49.480;20.016;2023-03-16T14:07:57;95316.41;;;10.49;40.34
54465;BME280;40374;49.480;20.016;2023-03-16T14:10:36;95300.53;;;10.27;40.20
54465;BME280;40374;49.480;20.016;2023-03-16T14:13:20;95316.13;;;10.14;39.26
54465;BME280;40374;49.480;20.016;2023-03-16T14:15:48;95298.50;;;11.20;38.13
54465;BME280;40374;49.480;20.016;2023-03-16T14:18:19;95308.44;;;11.79;37.63
54465;BME280;40374;49.480;20.016;2023-03-16T14:20:54;95297.88;;;12.62;36.63
54465;BME280;40374;49.480;20.016;2023-03-16T14:23:31;95305.59;;;13.51;35.00
54465;BME280;40374;49.480;20.016;2023-03-16T14:26:03;95313.47;;;13.66;35.56
54465;BME280;40374;49.480;20.016;2023-03-16T14:28:33;95309.25;;;12.88;36.56
54465;BME280;40374;49.480;20.016;2023-03-16T14:31:11;95315.41;;;11.85;37.47
54465;BME280;40374;49.480;20.016;2023-03-16T14:33:41;95314.47;;;10.80;39.15
54465;BME280;40374;49.480;20.016;2023-03-16T14:36:15;95324.44;;;10.18;40.95
54465;BME280;40374;49.480;20.016;2023-03-16T14:38:48;95328.66;;;9.58;41.94